sensor_id;sensor_type;location;lat;lon;timestamp;temperature;humidity
48579;DHT22;34357;51.948;6.132;2023-04-24T00:00:10;9.90;89.50
48579;DHT22;34357;51.948;6.132;2023-04-24T00:02:36;9.90;89.20
48579;DHT22;34357;51.948;6.132;2023-04-24T00:05:05;9.90;89.30
48579;DHT22;34357;51.948;6.132;2023-04-24T00:07:32;9.90;89.30
48579;DHT22;34357;51.948;6.132;2023-04-24T00:09:58;9.90;89.30
48579;DHT22;34357;51.948;6.132;2023-04-24T00:12:24;9.90;89.30
48579;DHT22;34357;51.948;6.132;2023-04-24T00:14:50;9.90;89.60
48579;DHT22;34357;51.948;6.132;2023-04-24T00:17:16;9.90;89.70
48579;DHT22;34357;51.948;6.132;2023-04-24T00:19:46;9.90;89.60
48579;DHT22;34357;51.948;6.132;2023-04-24T00:22:13;9.90;89.80
48579;DHT22;34357;51.948;6.132;2023-04-24T00:24:40;9.90;89.90
48579;DHT22;34357;51.948;6.132;2023-04-24T00:27:06;9.90;90.20
48579;DHT22;34357;51.948;6.132;2023-04-24T00:29:32;9.90;90.40
48579;DHT22;34357;51.948;6.132;2023-04-24T00:31:58;9.90;90.20
48579;DHT22;34357;51.948;6.132;2023-04-24T00:34:23;9.80;90.20
48579;DHT22;34357;51.948;6.132;2023-04-24T00:36:49;9.90;90.20
48579;DHT22;34357;51.948;6.132;2023-04-24T00:39:21;9.90;90.30
48579;DHT22;34357;51.948;6.132;2023-04-24T00:41:47;9.90;90.10
48579;DHT22;34357;51.948;6.132;2023-04-24T00:44:14;9.90;89.90
48579;DHT22;34357;51.948;6.132;2023-04-24T00:46:40;9.90;90.00
48579;DHT22;34357;51.948;6.132;2023-04-24T00:49:06;9.90;89.90
48579;DHT22;34357;51.948;6.132;2023-04-24T00:51:32;9.90;89.80
48579;DHT22;34357;51.948;6.132;2023-04-24T00:53:59;9.90;89.70
48579;DHT22;34357;51.948;6.132;2023-04-24T00:56:26;9.90;89.60
48579;DHT22;34357;51.948;6.132;2023-04-24T00:58:52;9.90;89.30
48579;DHT22;34357;51.948;6.132;2023-04-24T01:01:21;9.90;89.30
48579;DHT22;34357;51.948;6.132;2023-04-24T01:03:48;9.90;89.30
48579;DHT22;34357;51.948;6.132;2023-04-24T01:06:15;9.90;89.30
48579;DHT22;34357;51.948;6.132;2023-04-24T01:08:41;10.00;89.20
48579;DHT22;34357;51.948;6.132;2023-04-24T01:11:08;9.90;89.10
48579;DHT22;34357;51.948;6.132;2023-04-24T01:13:34;9.90;89.30
48579;DHT22;34357;51.948;6.132;2023-04-24T01:16:02;9.90;89.50
48579;DHT22;34357;51.948;6.132;2023-04-24T01:18:28;9.90;89.60
48579;DHT22;34357;51.948;6.132;2023-04-24T01:20:58;9.90;89.80
48579;DHT22;34357;51.948;6.132;2023-04-24T01:23:25;9.90;90.00
48579;DHT22;34357;51.948;6.132;2023-04-24T01:25:51;9.90;90.20
48579;DHT22;34357;51.948;6.132;2023-04-24T01:28:18;9.90;90.20
48579;DHT22;34357;51.948;6.132;2023-04-24T01:30:44;9.90;90.20
48579;DHT22;34357;51.948;6.132;2023-04-24T01:33:10;9.80;90.50
48579;DHT22;34357;51.948;6.132;2023-04-24T01:35:37;9.80;90.80
48579;DHT22;34357;51.948;6.132;2023-04-24T01:38:03;9.70;91.00
48579;DHT22;34357;51.948;6.132;2023-04-24T01:40:29;9.80;91.00
48579;DHT22;34357;51.948;6.132;2023-04-24T01:42:58;9.80;90.70
48579;DHT22;34357;51.948;6.132;2023-04-24T01:45:24;9.90;90.50
48579;DHT22;34357;51.948;6.132;2023-04-24T01:47:50;9.90;90.10
48579;DHT22;34357;51.948;6.132;2023-04-24T01:50:17;9.90;89.90
48579;DHT22;34357;51.948;6.132;2023-04-24T01:52:43;9.80;89.90
48579;DHT22;34357;51.948;6.132;2023-04-24T01:55:09;9.90;89.80
48579;DHT22;34357;51.948;6.132;2023-04-24T01:57:35;9.90;89.90
48579;DHT22;34357;51.948;6.132;2023-04-24T02:00:03;9.90;89.70
48579;DHT22;34357;51.948;6.132;2023-04-24T02:02:41;9.90;89.60
48579;DHT22;34357;51.948;6.132;2023-04-24T02:05:08;9.90;89.80
48579;DHT22;34357;51.948;6.132;2023-04-24T02:07:35;9.90;89.90
48579;DHT22;34357;51.948;6.132;2023-04-24T02:10:01;9.80;90.10
48579;DHT22;34357;51.948;6.132;2023-04-24T02:12:27;9.80;90.30
48579;DHT22;34357;51.948;6.132;2023-04-24T02:14:53;9.80;90.40
48579;DHT22;34357;51.948;6.132;2023-04-24T02:17:19;9.80;90.50
48579;DHT22;34357;51.948;6.132;2023-04-24T02:19:45;9.80;90.40
48579;DHT22;34357;51.948;6.132;2023-04-24T02:22:11;9.70;90.40
48579;DHT22;34357;51.948;6.132;2023-04-24T02:24:38;9.70;90.40
48579;DHT22;34357;51.948;6.132;2023-04-24T02:27:04;9.70;90.40
48579;DHT22;34357;51.948;6.132;2023-04-24T02:29:29;9.70;90.50
48579;DHT22;34357;51.948;6.132;2023-04-24T02:31:56;9.70;90.60
48579;DHT22;34357;51.948;6.132;2023-04-24T02:34:21;9.70;90.80
48579;DHT22;34357;51.948;6.132;2023-04-24T02:36:48;9.70;90.80
48579;DHT22;34357;51.948;6.132;2023-04-24T02:39:14;9.70;90.90
48579;DHT22;34357;51.948;6.132;2023-04-24T02:41:42;9.60;91.10
48579;DHT22;34357;51.948;6.132;2023-04-24T02:44:08;9.60;91.20
48579;DHT22;34357;51.948;6.132;2023-04-24T02:46:34;9.60;91.30
48579;DHT22;34357;51.948;6.132;2023-04-24T02:49:00;9.50;91.30
48579;DHT22;34357;51.948;6.132;2023-04-24T02:51:26;9.50;91.50
48579;DHT22;34357;51.948;6.132;2023-04-24T02:53:52;9.50;91.50
48579;DHT22;34357;51.948;6.132;2023-04-24T02:56:18;9.60;91.40
48579;DHT22;34357;51.948;6.132;2023-04-24T02:58:44;9.50;91.40
48579;DHT22;34357;51.948;6.132;2023-04-24T03:01:10;9.60;91.40
48579;DHT22;34357;51.948;6.132;2023-04-24T03:03:37;9.50;91.30
48579;DHT22;34357;51.948;6.132;2023-04-24T03:06:03;9.60;91.20
48579;DHT22;34357;51.948;6.132;2023-04-24T03:08:31;9.60;91.20
48579;DHT22;34357;51.948;6.132;2023-04-24T03:10:57;9.60;91.40
48579;DHT22;34357;51.948;6.132;2023-04-24T03:13:23;9.50;91.50
48579;DHT22;34357;51.948;6.132;2023-04-24T03:15:50;9.50;91.70
48579;DHT22;34357;51.948;6.132;2023-04-24T03:18:16;9.50;91.90
48579;DHT22;34357;51.948;6.132;2023-04-24T03:20:42;9.50;92.10
48579;DHT22;34357;51.948;6.132;2023-04-24T03:23:08;9.40;92.30
48579;DHT22;34357;51.948;6.132;2023-04-24T03:25:35;9.40;92.50
48579;DHT22;34357;51.948;6.132;2023-04-24T03:28:01;9.40;92.60
48579;DHT22;34357;51.948;6.132;2023-04-24T03:30:43;9.40;92.80
48579;DHT22;34357;51.948;6.132;2023-04-24T03:33:09;9.40;92.80
48579;DHT22;34357;51.948;6.132;2023-04-24T03:35:40;9.40;92.80
48579;DHT22;34357;51.948;6.132;2023-04-24T03:38:09;9.30;92.70
48579;DHT22;34357;51.948;6.132;2023-04-24T03:40:41;9.30;92.80
48579;DHT22;34357;51.948;6.132;2023-04-24T03:43:27;9.30;92.80
48579;DHT22;34357;51.948;6.132;2023-04-24T03:45:54;9.20;92.70
48579;DHT22;34357;51.948;6.132;2023-04-24T03:48:20;9.30;92.60
48579;DHT22;34357;51.948;6.132;2023-04-24T03:50:46;9.20;92.50
48579;DHT22;34357;51.948;6.132;2023-04-24T03:53:12;9.20;92.50
48579;DHT22;34357;51.948;6.132;2023-04-24T03:55:40;9.30;92.40
48579;DHT22;34357;51.948;6.132;2023-04-24T03:58:06;9.20;92.40
48579;DHT22;34357;51.948;6.132;2023-04-24T04:00:31;9.20;92.40
48579;DHT22;34357;51.948;6.132;2023-04-24T04:03:17;9.20;92.40
48579;DHT22;34357;51.948;6.132;2023-04-24T04:05:43;9.20;92.30
48579;DHT22;34357;51.948;6.132;2023-04-24T04:08:09;9.20;92.30
48579;DHT22;34357;51.948;6.132;2023-04-24T04:10:34;9.10;92.40
48579;DHT22;34357;51.948;6.132;2023-04-24T04:13:03;9.10;92.50
48579;DHT22;34357;51.948;6.132;2023-04-24T04:15:29;9.10;92.50
48579;DHT22;34357;51.948;6.132;2023-04-24T04:17:54;9.10;92.60
48579;DHT22;34357;51.948;6.132;2023-04-24T04:20:21;9.10;92.60
48579;DHT22;34357;51.948;6.132;2023-04-24T04:22:46;9.10;92.70
48579;DHT22;34357;51.948;6.132;2023-04-24T04:25:17;9.00;92.60
48579;DHT22;34357;51.948;6.132;2023-04-24T04:27:46;9.00;92.80
48579;DHT22;34357;51.948;6.132;2023-04-24T04:30:13;9.00;92.90
48579;DHT22;34357;51.948;6.132;2023-04-24T04:32:55;9.00;92.90
48579;DHT22;34357;51.948;6.132;2023-04-24T04:35:21;8.90;92.90
48579;DHT22;34357;51.948;6.132;2023-04-24T04:37:47;8.90;93.00
48579;DHT22;34357;51.948;6.132;2023-04-24T04:40:36;8.90;93.10
48579;DHT22;34357;51.948;6.132;2023-04-24T04:43:04;8.90;93.10
48579;DHT22;34357;51.948;6.132;2023-04-24T04:45:37;8.90;93.20
48579;DHT22;34357;51.948;6.132;2023-04-24T04:48:32;8.90;93.10
48579;DHT22;34357;51.948;6.132;2023-04-24T04:51:00;8.90;93.20
48579;DHT22;34357;51.948;6.132;2023-04-24T04:53:26;8.90;93.20
48579;DHT22;34357;51.948;6.132;2023-04-24T04:55:52;8.90;93.00
48579;DHT22;34357;51.948;6.132;2023-04-24T04:58:19;8.90;93.10
48579;DHT22;34357;51.948;6.132;2023-04-24T05:00:48;8.90;93.00
48579;DHT22;34357;51.948;6.132;2023-04-24T05:03:25;8.90;92.90
48579;DHT22;34357;51.948;6.132;2023-04-24T05:05:57;8.90;92.80
48579;DHT22;34357;51.948;6.132;2023-04-24T05:08:24;8.90;92.80
48579;DHT22;34357;51.948;6.132;2023-04-24T05:10:49;9.00;92.70
48579;DHT22;34357;51.948;6.132;2023-04-24T05:13:15;8.90;92.60
48579;DHT22;34357;51.948;6.132;2023-04-24T05:15:41;8.90;92.60
48579;DHT22;34357;51.948;6.132;2023-04-24T05:18:07;8.90;92.50
48579;DHT22;34357;51.948;6.132;2023-04-24T05:20:33;8.90;92.60
48579;DHT22;34357;51.948;6.132;2023-04-24T05:22:59;8.90;92.60
48579;DHT22;34357;51.948;6.132;2023-04-24T05:25:26;8.90;92.70
48579;DHT22;34357;51.948;6.132;2023-04-24T05:27:56;8.90;92.70
48579;DHT22;34357;51.948;6.132;2023-04-24T05:30:22;8.90;92.80
48579;DHT22;34357;51.948;6.132;2023-04-24T05:32:49;8.90;92.80
48579;DHT22;34357;51.948;6.132;2023-04-24T05:35:15;8.90;92.90
48579;DHT22;34357;51.948;6.132;2023-04-24T05:37:41;8.90;92.90
48579;DHT22;34357;51.948;6.132;2023-04-24T05:40:08;8.90;92.80
48579;DHT22;34357;51.948;6.132;2023-04-24T05:42:35;8.90;92.90
48579;DHT22;34357;51.948;6.132;2023-04-24T05:45:00;8.80;92.90
48579;DHT22;34357;51.948;6.132;2023-04-24T05:47:26;8.80;92.80
48579;DHT22;34357;51.948;6.132;2023-04-24T05:49:52;8.80;92.90
48579;DHT22;34357;51.948;6.132;2023-04-24T05:52:19;8.80;93.00
48579;DHT22;34357;51.948;6.132;2023-04-24T05:54:45;8.80;93.10
48579;DHT22;34357;51.948;6.132;2023-04-24T05:57:13;8.80;93.10
48579;DHT22;34357;51.948;6.132;2023-04-24T06:00:01;8.80;93.20
48579;DHT22;34357;51.948;6.132;2023-04-24T06:02:28;8.70;93.30
48579;DHT22;34357;51.948;6.132;2023-04-24T06:04:59;8.70;93.40
48579;DHT22;34357;51.948;6.132;2023-04-24T06:07:25;8.80;93.30
48579;DHT22;34357;51.948;6.132;2023-04-24T06:09:54;8.80;93.20
48579;DHT22;34357;51.948;6.132;2023-04-24T06:12:21;8.90;93.20
48579;DHT22;34357;51.948;6.132;2023-04-24T06:14:54;8.90;93.10
48579;DHT22;34357;51.948;6.132;2023-04-24T06:17:26;8.90;93.00
48579;DHT22;34357;51.948;6.132;2023-04-24T06:19:51;9.00;92.90
48579;DHT22;34357;51.948;6.132;2023-04-24T06:22:18;9.00;92.90
48579;DHT22;34357;51.948;6.132;2023-04-24T06:24:44;9.00;92.80
48579;DHT22;34357;51.948;6.132;2023-04-24T06:27:10;9.10;92.90
48579;DHT22;34357;51.948;6.132;2023-04-24T06:29:36;9.10;92.80
48579;DHT22;34357;51.948;6.132;2023-04-24T06:32:01;9.20;92.80
48579;DHT22;34357;51.948;6.132;2023-04-24T06:34:27;9.20;92.80
48579;DHT22;34357;51.948;6.132;2023-04-24T06:36:54;9.20;92.90
48579;DHT22;34357;51.948;6.132;2023-04-24T06:39:20;9.30;92.90
48579;DHT22;34357;51.948;6.132;2023-04-24T06:41:46;9.40;93.00
48579;DHT22;34357;51.948;6.132;2023-04-24T06:44:18;9.40;92.90
48579;DHT22;34357;51.948;6.132;2023-04-24T06:46:44;9.40;92.90
48579;DHT22;34357;51.948;6.132;2023-04-24T06:49:10;9.40;92.90
48579;DHT22;34357;51.948;6.132;2023-04-24T06:51:35;9.40;92.90
48579;DHT22;34357;51.948;6.132;2023-04-24T06:54:01;9.40;92.80
48579;DHT22;34357;51.948;6.132;2023-04-24T06:56:27;9.30;92.70
48579;DHT22;34357;51.948;6.132;2023-04-24T06:58:54;9.40;92.60
48579;DHT22;34357;51.948;6.132;2023-04-24T07:01:20;9.20;92.30
48579;DHT22;34357;51.948;6.132;2023-04-24T07:03:46;9.20;92.20
48579;DHT22;34357;51.948;6.132;2023-04-24T07:06:11;9.20;92.00
48579;DHT22;34357;51.948;6.132;2023-04-24T07:08:38;9.10;91.90
48579;DHT22;34357;51.948;6.132;2023-04-24T07:11:04;9.10;92.00
48579;DHT22;34357;51.948;6.132;2023-04-24T07:13:29;9.20;92.10
48579;DHT22;34357;51.948;6.132;2023-04-24T07:15:55;9.20;91.80
48579;DHT22;34357;51.948;6.132;2023-04-24T07:18:22;9.30;92.00
48579;DHT22;34357;51.948;6.132;2023-04-24T07:20:47;9.30;92.00
48579;DHT22;34357;51.948;6.132;2023-04-24T07:23:16;9.40;92.10
48579;DHT22;34357;51.948;6.132;2023-04-24T07:25:41;9.50;92.20
48579;DHT22;34357;51.948;6.132;2023-04-24T07:28:07;9.60;92.20
48579;DHT22;34357;51.948;6.132;2023-04-24T07:30:33;9.70;92.30
48579;DHT22;34357;51.948;6.132;2023-04-24T07:32:59;9.80;92.10
48579;DHT22;34357;51.948;6.132;2023-04-24T07:35:26;9.80;92.00
48579;DHT22;34357;51.948;6.132;2023-04-24T07:37:55;9.70;92.00
48579;DHT22;34357;51.948;6.132;2023-04-24T07:40:21;9.70;92.20
48579;DHT22;34357;51.948;6.132;2023-04-24T07:42:47;9.70;92.20
48579;DHT22;34357;51.948;6.132;2023-04-24T07:45:14;9.60;92.30
48579;DHT22;34357;51.948;6.132;2023-04-24T07:47:43;9.50;92.40
48579;DHT22;34357;51.948;6.132;2023-04-24T07:50:11;9.50;92.50
48579;DHT22;34357;51.948;6.132;2023-04-24T07:52:38;9.50;92.70
48579;DHT22;34357;51.948;6.132;2023-04-24T07:55:04;9.50;92.80
48579;DHT22;34357;51.948;6.132;2023-04-24T07:57:30;9.40;92.80
48579;DHT22;34357;51.948;6.132;2023-04-24T07:59:56;9.30;92.80
48579;DHT22;34357;51.948;6.132;2023-04-24T08:02:22;9.30;92.90
48579;DHT22;34357;51.948;6.132;2023-04-24T08:04:52;9.20;92.90
48579;DHT22;34357;51.948;6.132;2023-04-24T08:07:19;9.20;93.10
48579;DHT22;34357;51.948;6.132;2023-04-24T08:09:45;9.20;93.10
48579;DHT22;34357;51.948;6.132;2023-04-24T08:12:11;9.20;93.10
48579;DHT22;34357;51.948;6.132;2023-04-24T08:14:36;9.20;93.10
48579;DHT22;34357;51.948;6.132;2023-04-24T08:17:02;9.20;93.10
48579;DHT22;34357;51.948;6.132;2023-04-24T08:19:29;9.10;93.00
48579;DHT22;34357;51.948;6.132;2023-04-24T08:21:55;8.90;92.60
48579;DHT22;34357;51.948;6.132;2023-04-24T08:24:20;8.90;92.70
48579;DHT22;34357;51.948;6.132;2023-04-24T08:26:46;8.80;92.50
48579;DHT22;34357;51.948;6.132;2023-04-24T08:29:15;8.70;92.30
48579;DHT22;34357;51.948;6.132;2023-04-24T08:31:41;8.70;92.20
48579;DHT22;34357;51.948;6.132;2023-04-24T08:34:07;8.70;91.70
48579;DHT22;34357;51.948;6.132;2023-04-24T08:36:33;8.60;91.90
48579;DHT22;34357;51.948;6.132;2023-04-24T08:38:59;8.50;91.70
48579;DHT22;34357;51.948;6.132;2023-04-24T08:41:24;8.60;92.10
48579;DHT22;34357;51.948;6.132;2023-04-24T08:43:52;8.60;92.00
48579;DHT22;34357;51.948;6.132;2023-04-24T08:46:19;8.50;92.20
48579;DHT22;34357;51.948;6.132;2023-04-24T08:48:45;8.50;92.40
48579;DHT22;34357;51.948;6.132;2023-04-24T08:51:11;8.60;92.50
48579;DHT22;34357;51.948;6.132;2023-04-24T08:53:40;8.60;92.50
48579;DHT22;34357;51.948;6.132;2023-04-24T08:56:06;8.60;92.40
48579;DHT22;34357;51.948;6.132;2023-04-24T08:58:33;8.60;92.40
48579;DHT22;34357;51.948;6.132;2023-04-24T09:00:59;8.60;92.50
48579;DHT22;34357;51.948;6.132;2023-04-24T09:03:27;8.60;92.60
48579;DHT22;34357;51.948;6.132;2023-04-24T09:05:55;8.60;92.60
48579;DHT22;34357;51.948;6.132;2023-04-24T09:08:24;8.60;92.60
48579;DHT22;34357;51.948;6.132;2023-04-24T09:10:50;8.70;92.60
48579;DHT22;34357;51.948;6.132;2023-04-24T09:13:17;8.70;92.60
48579;DHT22;34357;51.948;6.132;2023-04-24T09:15:44;8.70;92.70
48579;DHT22;34357;51.948;6.132;2023-04-24T09:18:10;8.70;92.90
48579;DHT22;34357;51.948;6.132;2023-04-24T09:23:27;8.80;92.90
48579;DHT22;34357;51.948;6.132;2023-04-24T09:25:55;8.80;92.90
48579;DHT22;34357;51.948;6.132;2023-04-24T09:28:46;8.80;92.80
48579;DHT22;34357;51.948;6.132;2023-04-24T09:31:18;8.70;92.50
48579;DHT22;34357;51.948;6.132;2023-04-24T09:36:29;8.70;92.40
48579;DHT22;34357;51.948;6.132;2023-04-24T09:39:01;8.60;91.80
48579;DHT22;34357;51.948;6.132;2023-04-24T09:41:28;8.50;91.50
48579;DHT22;34357;51.948;6.132;2023-04-24T09:43:55;8.50;91.40
48579;DHT22;34357;51.948;6.132;2023-04-24T09:46:29;8.60;91.80
48579;DHT22;34357;51.948;6.132;2023-04-24T09:48:56;8.60;91.30
48579;DHT22;34357;51.948;6.132;2023-04-24T09:51:34;8.60;91.10
48579;DHT22;34357;51.948;6.132;2023-04-24T09:54:01;8.80;91.30
48579;DHT22;34357;51.948;6.132;2023-04-24T09:56:26;8.80;90.90
48579;DHT22;34357;51.948;6.132;2023-04-24T09:58:52;8.90;90.10
48579;DHT22;34357;51.948;6.132;2023-04-24T10:01:30;8.90;89.70
48579;DHT22;34357;51.948;6.132;2023-04-24T10:03:56;8.90;89.00
48579;DHT22;34357;51.948;6.132;2023-04-24T10:06:22;8.90;89.20
48579;DHT22;34357;51.948;6.132;2023-04-24T10:08:48;8.90;88.10
48579;DHT22;34357;51.948;6.132;2023-04-24T10:11:16;8.90;88.00
48579;DHT22;34357;51.948;6.132;2023-04-24T10:13:43;9.00;88.20
48579;DHT22;34357;51.948;6.132;2023-04-24T10:16:09;9.10;86.90
48579;DHT22;34357;51.948;6.132;2023-04-24T10:18:36;9.20;87.20
48579;DHT22;34357;51.948;6.132;2023-04-24T10:21:02;9.20;86.30
48579;DHT22;34357;51.948;6.132;2023-04-24T10:23:28;9.20;87.00
48579;DHT22;34357;51.948;6.132;2023-04-24T10:25:54;9.50;86.40
48579;DHT22;34357;51.948;6.132;2023-04-24T10:28:21;9.70;85.30
48579;DHT22;34357;51.948;6.132;2023-04-24T10:30:48;9.80;84.70
48579;DHT22;34357;51.948;6.132;2023-04-24T10:33:16;9.90;84.80
48579;DHT22;34357;51.948;6.132;2023-04-24T10:35:45;10.00;83.90
48579;DHT22;34357;51.948;6.132;2023-04-24T10:38:17;9.90;83.50
48579;DHT22;34357;51.948;6.132;2023-04-24T10:40:44;10.10;82.50
48579;DHT22;34357;51.948;6.132;2023-04-24T10:43:09;10.10;81.70
48579;DHT22;34357;51.948;6.132;2023-04-24T10:45:37;10.40;83.30
48579;DHT22;34357;51.948;6.132;2023-04-24T10:48:05;10.70;80.70
48579;DHT22;34357;51.948;6.132;2023-04-24T10:53:12;11.40;80.90
48579;DHT22;34357;51.948;6.132;2023-04-24T10:55:48;11.10;79.70
48579;DHT22;34357;51.948;6.132;2023-04-24T10:58:15;11.00;79.40
48579;DHT22;34357;51.948;6.132;2023-04-24T11:00:43;10.90;79.30
48579;DHT22;34357;51.948;6.132;2023-04-24T11:03:25;10.70;77.70
48579;DHT22;34357;51.948;6.132;2023-04-24T11:06:04;10.40;77.40
48579;DHT22;34357;51.948;6.132;2023-04-24T11:08:43;10.30;78.10
48579;DHT22;34357;51.948;6.132;2023-04-24T11:11:13;9.90;76.20
48579;DHT22;34357;51.948;6.132;2023-04-24T11:14:08;9.90;77.50
48579;DHT22;34357;51.948;6.132;2023-04-24T11:16:37;10.20;78.30
48579;DHT22;34357;51.948;6.132;2023-04-24T11:19:22;10.30;75.80
48579;DHT22;34357;51.948;6.132;2023-04-24T11:21:57;10.20;76.40
48579;DHT22;34357;51.948;6.132;2023-04-24T11:24:30;10.30;77.40
48579;DHT22;34357;51.948;6.132;2023-04-24T11:29:48;10.60;76.70
48579;DHT22;34357;51.948;6.132;2023-04-24T11:34:55;10.00;77.70
48579;DHT22;34357;51.948;6.132;2023-04-24T11:37:22;9.80;77.30
48579;DHT22;34357;51.948;6.132;2023-04-24T11:39:53;9.80;78.60
48579;DHT22;34357;51.948;6.132;2023-04-24T11:42:21;9.90;79.00
48579;DHT22;34357;51.948;6.132;2023-04-24T11:44:47;10.10;78.10
48579;DHT22;34357;51.948;6.132;2023-04-24T11:47:14;10.20;77.10
48579;DHT22;34357;51.948;6.132;2023-04-24T11:49:40;10.30;75.20
48579;DHT22;34357;51.948;6.132;2023-04-24T11:52:06;10.20;76.10
48579;DHT22;34357;51.948;6.132;2023-04-24T11:54:32;10.20;76.90
48579;DHT22;34357;51.948;6.132;2023-04-24T11:56:58;10.30;77.40
48579;DHT22;34357;51.948;6.132;2023-04-24T11:59:24;10.40;76.40
48579;DHT22;34357;51.948;6.132;2023-04-24T12:01:50;10.60;76.20
48579;DHT22;34357;51.948;6.132;2023-04-24T12:04:17;10.80;75.70
48579;DHT22;34357;51.948;6.132;2023-04-24T12:07:02;10.80;75.00
48579;DHT22;34357;51.948;6.132;2023-04-24T12:09:28;10.60;74.80
48579;DHT22;34357;51.948;6.132;2023-04-24T12:11:58;10.50;75.50
48579;DHT22;34357;51.948;6.132;2023-04-24T12:14:24;10.30;76.30
48579;DHT22;34357;51.948;6.132;2023-04-24T12:16:50;10.30;77.00
48579;DHT22;34357;51.948;6.132;2023-04-24T12:19:22;10.00;75.90
48579;DHT22;34357;51.948;6.132;2023-04-24T12:22:02;9.90;77.20
48579;DHT22;34357;51.948;6.132;2023-04-24T12:24:29;9.90;76.30
48579;DHT22;34357;51.948;6.132;2023-04-24T12:26:56;9.80;77.80
48579;DHT22;34357;51.948;6.132;2023-04-24T12:29:23;9.70;79.10
48579;DHT22;34357;51.948;6.132;2023-04-24T12:31:50;9.60;80.80
48579;DHT22;34357;51.948;6.132;2023-04-24T12:34:24;9.40;82.80
48579;DHT22;34357;51.948;6.132;2023-04-24T12:36:51;9.40;84.60
48579;DHT22;34357;51.948;6.132;2023-04-24T12:39:17;9.40;84.60
48579;DHT22;34357;51.948;6.132;2023-04-24T12:41:56;9.80;84.50
48579;DHT22;34357;51.948;6.132;2023-04-24T12:44:34;10.00;83.60
48579;DHT22;34357;51.948;6.132;2023-04-24T12:47:01;10.30;83.80
48579;DHT22;34357;51.948;6.132;2023-04-24T12:49:29;10.20;82.10
48579;DHT22;34357;51.948;6.132;2023-04-24T12:51:55;10.30;80.30
48579;DHT22;34357;51.948;6.132;2023-04-24T12:54:22;10.40;79.60
48579;DHT22;34357;51.948;6.132;2023-04-24T12:56:47;10.70;79.20
48579;DHT22;34357;51.948;6.132;2023-04-24T12:59:13;10.90;77.90
48579;DHT22;34357;51.948;6.132;2023-04-24T13:01:39;10.80;76.80
48579;DHT22;34357;51.948;6.132;2023-04-24T13:04:05;10.70;77.60
48579;DHT22;34357;51.948;6.132;2023-04-24T13:06:31;10.50;76.10
48579;DHT22;34357;51.948;6.132;2023-04-24T13:08:57;10.50;76.30
48579;DHT22;34357;51.948;6.132;2023-04-24T13:11:24;10.30;77.50
48579;DHT22;34357;51.948;6.132;2023-04-24T13:13:50;10.40;76.90
48579;DHT22;34357;51.948;6.132;2023-04-24T13:16:16;10.60;76.30
48579;DHT22;34357;51.948;6.132;2023-04-24T13:18:42;10.60;76.10
48579;DHT22;34357;51.948;6.132;2023-04-24T13:21:08;10.80;75.90
48579;DHT22;34357;51.948;6.132;2023-04-24T13:23:34;10.90;76.00
48579;DHT22;34357;51.948;6.132;2023-04-24T13:26:00;10.80;75.80
48579;DHT22;34357;51.948;6.132;2023-04-24T13:28:26;11.10;75.20
48579;DHT22;34357;51.948;6.132;2023-04-24T13:30:53;10.90;75.50
48579;DHT22;34357;51.948;6.132;2023-04-24T13:33:18;10.90;74.80
48579;DHT22;34357;51.948;6.132;2023-04-24T13:35:44;10.90;75.70
48579;DHT22;34357;51.948;6.132;2023-04-24T13:38:10;10.90;74.90
48579;DHT22;34357;51.948;6.132;2023-04-24T13:40:36;10.90;75.30
48579;DHT22;34357;51.948;6.132;2023-04-24T13:43:02;10.80;73.10
48579;DHT22;34357;51.948;6.132;2023-04-24T13:45:28;10.60;73.60
48579;DHT22;34357;51.948;6.132;2023-04-24T13:47:53;10.50;73.40
48579;DHT22;34357;51.948;6.132;2023-04-24T13:50:20;10.30;73.70
48579;DHT22;34357;51.948;6.132;2023-04-24T13:52:46;10.20;74.70
48579;DHT22;34357;51.948;6.132;2023-04-24T13:55:11;10.20;75.00
48579;DHT22;34357;51.948;6.132;2023-04-24T13:57:37;10.10;75.00
48579;DHT22;34357;51.948;6.132;2023-04-24T14:00:03;10.20;74.90
48579;DHT22;34357;51.948;6.132;2023-04-24T14:02:32;10.30;73.30
48579;DHT22;34357;51.948;6.132;2023-04-24T14:04:58;10.40;72.80
48579;DHT22;34357;51.948;6.132;2023-04-24T14:07:24;10.70;71.20
48579;DHT22;34357;51.948;6.132;2023-04-24T14:09:50;10.70;71.50
48579;DHT22;34357;51.948;6.132;2023-04-24T14:12:16;10.80;70.90
48579;DHT22;34357;51.948;6.132;2023-04-24T14:14:45;10.90;71.40
48579;DHT22;34357;51.948;6.132;2023-04-24T14:17:11;11.20;71.60
48579;DHT22;34357;51.948;6.132;2023-04-24T14:19:37;11.20;70.60
48579;DHT22;34357;51.948;6.132;2023-04-24T14:22:03;11.20;71.20
48579;DHT22;34357;51.948;6.132;2023-04-24T14:24:29;11.10;71.70
48579;DHT22;34357;51.948;6.132;2023-04-24T14:26:55;11.30;68.30
48579;DHT22;34357;51.948;6.132;2023-04-24T14:29:21;11.40;66.80
48579;DHT22;34357;51.948;6.132;2023-04-24T14:31:47;11.30;66.50
48579;DHT22;34357;51.948;6.132;2023-04-24T14:34:13;11.00;65.50
48579;DHT22;34357;51.948;6.132;2023-04-24T14:36:39;11.00;66.20
48579;DHT22;34357;51.948;6.132;2023-04-24T14:39:06;11.10;67.00
48579;DHT22;34357;51.948;6.132;2023-04-24T14:41:32;11.20;65.30
48579;DHT22;34357;51.948;6.132;2023-04-24T14:44:01;11.40;66.70
48579;DHT22;34357;51.948;6.132;2023-04-24T14:46:28;11.40;65.50
48579;DHT22;34357;51.948;6.132;2023-04-24T14:48:56;11.80;66.30
48579;DHT22;34357;51.948;6.132;2023-04-24T14:51:22;12.00;65.50
48579;DHT22;34357;51.948;6.132;2023-04-24T14:53:47;12.20;66.10
48579;DHT22;34357;51.948;6.132;2023-04-24T14:56:14;12.20;66.10
48579;DHT22;34357;51.948;6.132;2023-04-24T14:58:39;12.20;66.40
48579;DHT22;34357;51.948;6.132;2023-04-24T15:01:05;11.90;63.70
48579;DHT22;34357;51.948;6.132;2023-04-24T15:03:31;11.70;62.80
48579;DHT22;34357;51.948;6.132;2023-04-24T15:05:57;11.40;65.10
48579;DHT22;34357;51.948;6.132;2023-04-24T15:08:22;11.30;65.90
48579;DHT22;34357;51.948;6.132;2023-04-24T15:10:49;11.20;66.10
48579;DHT22;34357;51.948;6.132;2023-04-24T15:13:15;11.20;65.90
48579;DHT22;34357;51.948;6.132;2023-04-24T15:15:41;11.30;65.60
48579;DHT22;34357;51.948;6.132;2023-04-24T15:18:08;11.60;66.30
48579;DHT22;34357;51.948;6.132;2023-04-24T15:20:36;11.70;64.90
48579;DHT22;34357;51.948;6.132;2023-04-24T15:23:01;11.60;64.70
48579;DHT22;34357;51.948;6.132;2023-04-24T15:25:27;11.40;65.60
48579;DHT22;34357;51.948;6.132;2023-04-24T15:27:53;11.30;65.60
48579;DHT22;34357;51.948;6.132;2023-04-24T15:30:19;11.30;65.10
48579;DHT22;34357;51.948;6.132;2023-04-24T15:32:45;11.00;64.30
48579;DHT22;34357;51.948;6.132;2023-04-24T15:35:10;10.80;66.80
48579;DHT22;34357;51.948;6.132;2023-04-24T15:37:38;10.80;66.50
48579;DHT22;34357;51.948;6.132;2023-04-24T15:40:04;10.80;67.10
48579;DHT22;34357;51.948;6.132;2023-04-24T15:42:32;10.90;67.20
48579;DHT22;34357;51.948;6.132;2023-04-24T15:44:58;11.10;67.40
48579;DHT22;34357;51.948;6.132;2023-04-24T15:47:24;11.00;66.00
48579;DHT22;34357;51.948;6.132;2023-04-24T15:49:51;11.00;64.30
48579;DHT22;34357;51.948;6.132;2023-04-24T15:52:18;10.80;65.50
48579;DHT22;34357;51.948;6.132;2023-04-24T15:54:43;10.70;66.20
48579;DHT22;34357;51.948;6.132;2023-04-24T15:57:09;10.90;65.40